createdAt,value
2022-08-19T00:02:05.814Z,12.20
2022-08-19T00:04:37.702Z,12.88
2022-08-19T00:07:07.871Z,12.32
2022-08-19T00:09:36.827Z,13.43
2022-08-19T00:12:07.377Z,11.90
2022-08-19T00:14:36.188Z,12.20
2022-08-19T00:17:07.442Z,11.73
2022-08-19T00:19:38.112Z,12.73
2022-08-19T00:22:07.439Z,12.88
2022-08-19T00:24:39.392Z,12.95
2022-08-19T00:27:24.987Z,12.43
2022-08-19T00:29:53.978Z,12.65
2022-08-19T00:32:23.050Z,12.07
2022-08-19T00:34:54.499Z,12.55
2022-08-19T00:37:24.741Z,12.05
2022-08-19T00:39:54.863Z,12.52
2022-08-19T00:42:27.003Z,12.57
2022-08-19T00:44:55.899Z,12.95
2022-08-19T00:47:24.740Z,12.63
2022-08-19T00:50:00.200Z,12.48
2022-08-19T00:52:35.577Z,13.55
2022-08-19T00:55:07.492Z,13.13
2022-08-19T00:57:45.626Z,13.43
2022-08-19T01:00:20.338Z,13.60
2022-08-19T01:02:49.320Z,13.40
2022-08-19T01:05:24.916Z,13.55
2022-08-19T01:07:55.556Z,12.77
2022-08-19T01:10:30.711Z,12.90
2022-08-19T01:13:05.385Z,11.00
2022-08-19T01:15:45.608Z,12.10
2022-08-19T01:18:18.755Z,12.90
2022-08-19T01:20:48.109Z,12.57
2022-08-19T01:23:18.895Z,12.10
2022-08-19T01:25:53.104Z,12.48
2022-08-19T01:28:33.894Z,13.07
2022-08-19T01:31:08.540Z,13.05
2022-08-19T01:33:37.300Z,11.98
2022-08-19T01:36:10.284Z,13.60
2022-08-19T01:38:44.298Z,13.75
2022-08-19T01:41:14.260Z,14.05
2022-08-19T01:44:13.912Z,13.23
2022-08-19T01:46:32.360Z,13.27
2022-08-19T01:49:02.025Z,13.38
2022-08-19T01:51:31.274Z,13.00
2022-08-19T01:54:11.052Z,12.85
2022-08-19T01:56:40.190Z,13.18
2022-08-19T01:59:16.644Z,12.77
2022-08-19T02:01:45.628Z,12.18
2022-08-19T02:04:15.556Z,12.10
2022-08-19T02:06:44.239Z,13.10
2022-08-19T02:09:14.340Z,12.90
2022-08-19T02:11:44.542Z,12.43
2022-08-19T02:14:13.113Z,12.32
2022-08-19T02:16:41.879Z,12.05
2022-08-19T02:19:11.402Z,12.13
2022-08-19T02:21:39.968Z,11.75
2022-08-19T02:24:09.186Z,12.38
2022-08-19T02:26:39.084Z,12.27
2022-08-19T02:29:10.472Z,12.15
2022-08-19T02:31:39.026Z,12.35
2022-08-19T02:34:07.609Z,11.15
2022-08-19T02:36:36.575Z,12.00
2022-08-19T02:39:10.719Z,11.70
2022-08-19T02:41:40.864Z,11.68
2022-08-19T02:44:29.824Z,11.85
2022-08-19T02:46:58.672Z,11.25
2022-08-19T02:49:27.227Z,12.60
2022-08-19T02:51:56.022Z,13.45
2022-08-19T02:54:24.901Z,12.90
2022-08-19T02:56:54.766Z,12.70
2022-08-19T02:59:23.677Z,13.05
2022-08-19T03:01:52.496Z,12.93
2022-08-19T03:04:22.340Z,12.93
2022-08-19T03:06:51.441Z,13.18
2022-08-19T03:09:22.301Z,13.27
2022-08-19T03:11:52.686Z,13.35
2022-08-19T03:14:24.194Z,13.00
2022-08-19T03:16:54.334Z,13.32
2022-08-19T03:19:23.572Z,13.77
2022-08-19T03:21:53.389Z,13.23
2022-08-19T03:24:23.245Z,13.02
2022-08-19T03:26:58.594Z,14.48
2022-08-19T03:29:32.003Z,13.73
2022-08-19T03:32:04.921Z,13.90
2022-08-19T03:34:36.166Z,14.20
2022-08-19T03:37:09.169Z,13.95
2022-08-19T03:39:39.990Z,13.02
2022-08-19T03:42:47.863Z,13.40
2022-08-19T03:44:59.564Z,13.68
2022-08-19T03:47:28.493Z,13.55
2022-08-19T03:49:57.031Z,14.05
2022-08-19T03:52:25.614Z,12.98
2022-08-19T03:54:54.391Z,13.15
2022-08-19T03:57:24.432Z,13.45
2022-08-19T04:00:04.072Z,13.00
2022-08-19T04:02:42.914Z,13.73
2022-08-19T04:05:29.515Z,13.95
2022-08-19T04:07:59.881Z,13.85
2022-08-19T04:10:29.261Z,13.43
2022-08-19T04:12:58.004Z,12.80
2022-08-19T04:15:29.844Z,12.98
2022-08-19T04:17:58.645Z,13.50
2022-08-19T04:20:27.194Z,13.63
2022-08-19T04:22:55.929Z,13.48
2022-08-19T04:25:24.710Z,14.52
2022-08-19T04:27:53.340Z,13.48
2022-08-19T04:30:23.571Z,14.20
2022-08-19T04:32:53.767Z,14.27
2022-08-19T04:35:24.926Z,14.02
2022-08-19T04:37:53.852Z,14.43
2022-08-19T04:40:42.397Z,14.52
2022-08-19T04:43:16.683Z,14.13
2022-08-19T04:45:45.741Z,14.73
2022-08-19T04:48:26.295Z,14.45
2022-08-19T04:50:59.426Z,14.57
2022-08-19T04:53:37.468Z,14.77
2022-08-19T04:56:13.547Z,15.07
2022-08-19T04:58:46.135Z,15.48
2022-08-19T05:01:16.511Z,14.80
2022-08-19T05:03:46.879Z,14.23
2022-08-19T05:06:18.939Z,15.23
2022-08-19T05:08:48.545Z,14.57
2022-08-19T05:11:26.235Z,14.70
2022-08-19T05:13:55.995Z,14.82
2022-08-19T05:16:27.480Z,14.52
2022-08-19T05:19:16.187Z,15.75
2022-08-19T05:22:03.497Z,14.45
2022-08-19T05:24:34.553Z,13.95
2022-08-19T05:27:06.553Z,15.05
2022-08-19T05:29:36.657Z,13.95
2022-08-19T05:32:09.281Z,16.15
2022-08-19T05:34:40.518Z,15.75
2022-08-19T05:37:10.005Z,14.85
2022-08-19T05:39:41.528Z,15.80
2022-08-19T05:42:13.213Z,14.45
2022-08-19T05:44:45.472Z,14.93
2022-08-19T05:47:16.167Z,14.95
2022-08-19T05:49:46.393Z,13.90
2022-08-19T05:52:18.975Z,14.13
2022-08-19T05:54:52.009Z,13.68
2022-08-19T05:57:21.691Z,13.85
2022-08-19T05:59:52.684Z,13.80
2022-08-19T06:02:22.014Z,13.27
2022-08-19T06:04:51.926Z,13.50
2022-08-19T06:07:21.221Z,13.18
2022-08-19T06:10:00.667Z,13.95
2022-08-19T06:12:34.036Z,14.05
2022-08-19T06:15:05.722Z,13.18
2022-08-19T06:17:35.879Z,13.10
2022-08-19T06:20:09.779Z,13.43
2022-08-19T06:22:40.937Z,12.68
2022-08-19T06:25:11.189Z,12.95
2022-08-19T06:27:58.661Z,12.65
2022-08-19T06:30:29.731Z,12.60
2022-08-19T06:32:58.504Z,12.13
2022-08-19T06:35:30.504Z,12.88
2022-08-19T06:37:59.718Z,12.18
2022-08-19T06:40:28.564Z,12.23
2022-08-19T06:42:57.386Z,12.00
2022-08-19T06:45:34.581Z,12.30
2022-08-19T06:48:05.172Z,12.25
2022-08-19T06:50:35.102Z,12.25
2022-08-19T06:53:08.122Z,11.32
2022-08-19T06:55:36.676Z,12.00
2022-08-19T06:58:06.243Z,11.60
2022-08-19T07:00:35.784Z,11.32
2022-08-19T07:03:08.490Z,10.75
2022-08-19T07:05:45.724Z,10.70
2022-08-19T07:08:15.242Z,10.88
2022-08-19T07:10:49.005Z,10.35
2022-08-19T07:13:17.564Z,11.32
2022-08-19T07:15:48.004Z,10.60
2022-08-19T07:18:17.018Z,10.38
2022-08-19T07:20:47.112Z,10.80
2022-08-19T07:23:16.666Z,10.65
2022-08-19T07:25:53.186Z,9.77
2022-08-19T07:28:24.286Z,10.80
2022-08-19T07:30:53.938Z,10.13
2022-08-19T07:33:24.368Z,10.32
2022-08-19T07:35:57.936Z,10.18
2022-08-19T07:38:26.911Z,9.50
2022-08-19T07:40:55.938Z,9.18
2022-08-19T07:43:33.438Z,10.15
2022-08-19T07:46:04.615Z,9.95
2022-08-19T07:48:33.627Z,9.60
2022-08-19T07:51:08.540Z,9.18
2022-08-19T07:53:40.047Z,9.73
2022-08-19T07:56:08.808Z,9.80
2022-08-19T07:58:43.008Z,9.48
2022-08-19T08:01:15.247Z,9.02
2022-08-19T08:04:02.165Z,9.52
2022-08-19T08:06:49.821Z,9.25
2022-08-19T08:09:26.228Z,9.68
2022-08-19T08:12:01.977Z,9.85
2022-08-19T08:14:39.945Z,10.00
2022-08-19T08:17:13.802Z,9.60
2022-08-19T08:19:44.189Z,9.77
2022-08-19T08:22:33.260Z,9.52
2022-08-19T08:25:06.847Z,9.93
2022-08-19T08:27:40.550Z,10.50
2022-08-19T08:30:11.878Z,9.60
2022-08-19T08:32:42.461Z,9.25
2022-08-19T08:35:17.622Z,9.52
2022-08-19T08:37:51.300Z,9.98
2022-08-19T08:40:32.885Z,9.65
2022-08-19T08:43:11.629Z,9.07
2022-08-19T08:45:53.467Z,9.57
2022-08-19T08:48:34.760Z,9.43
2022-08-19T08:51:09.651Z,9.50
2022-08-19T08:53:42.559Z,10.32
2022-08-19T08:56:14.060Z,10.25
2022-08-19T08:59:00.714Z,9.10
2022-08-19T09:01:30.822Z,9.13
2022-08-19T09:04:02.777Z,9.32
2022-08-19T09:06:40.961Z,9.23
2022-08-19T09:09:20.855Z,8.48
2022-08-19T09:12:06.726Z,8.00
2022-08-19T09:14:50.773Z,7.97
2022-08-19T09:17:29.167Z,7.80
2022-08-19T09:20:03.450Z,8.57
2022-08-19T09:22:32.445Z,8.20
2022-08-19T09:25:02.761Z,8.13
2022-08-19T09:27:42.781Z,8.43
2022-08-19T09:30:27.579Z,8.32
2022-08-19T09:32:57.376Z,8.05
2022-08-19T09:35:30.644Z,7.90
2022-08-19T09:38:01.464Z,8.25
2022-08-19T09:40:37.731Z,8.15
2022-08-19T09:43:09.915Z,7.93
2022-08-19T09:45:40.091Z,7.97
2022-08-19T09:48:09.601Z,8.35
2022-08-19T09:50:51.865Z,8.25
2022-08-19T09:53:25.102Z,8.20
2022-08-19T09:55:57.841Z,7.85
2022-08-19T09:58:28.820Z,8.40
2022-08-19T10:00:58.508Z,8.55
2022-08-19T10:03:30.241Z,8.05
2022-08-19T10:06:01.627Z,7.70
2022-08-19T10:08:33.931Z,7.78
2022-08-19T10:11:27.289Z,8.65
2022-08-19T10:13:55.142Z,8.65
2022-08-19T10:16:30.342Z,7.47
2022-08-19T10:19:00.334Z,8.35
2022-08-19T10:21:36.304Z,8.23
2022-08-19T10:24:09.372Z,8.02
2022-08-19T10:26:46.218Z,8.15
2022-08-19T10:29:32.544Z,7.55
2022-08-19T10:32:03.496Z,8.02
2022-08-19T10:34:34.331Z,7.65
2022-08-19T10:37:03.832Z,8.40
2022-08-19T10:39:43.429Z,7.80
2022-08-19T10:42:14.743Z,7.78
2022-08-19T10:44:43.820Z,8.23
2022-08-19T10:47:17.914Z,8.32
2022-08-19T10:50:13.316Z,8.15
2022-08-19T10:52:49.249Z,8.75
2022-08-19T10:55:41.028Z,8.20
2022-08-19T10:58:16.297Z,9.02
2022-08-19T11:00:52.710Z,8.50
2022-08-19T11:03:21.621Z,8.70
2022-08-19T11:06:00.529Z,8.02
2022-08-19T11:08:29.723Z,8.05
2022-08-19T11:11:04.089Z,8.10
2022-08-19T11:13:38.324Z,8.45
2022-08-19T11:16:11.373Z,8.10
2022-08-19T11:18:44.778Z,9.00
2022-08-19T11:21:19.965Z,8.57
2022-08-19T11:23:52.180Z,8.00
2022-08-19T11:26:23.162Z,8.23
2022-08-19T11:28:55.328Z,8.35
2022-08-19T11:31:29.303Z,8.50
2022-08-19T11:34:00.654Z,8.73
2022-08-19T11:36:30.620Z,8.38
2022-08-19T11:38:59.298Z,8.73
2022-08-19T11:41:28.610Z,9.55
2022-08-19T11:43:58.772Z,8.43
2022-08-19T11:46:30.421Z,8.80
2022-08-19T11:49:00.370Z,8.65
2022-08-19T11:51:29.924Z,8.35
2022-08-19T11:54:01.110Z,8.65
2022-08-19T11:56:30.359Z,8.73
2022-08-19T11:59:03.980Z,8.57
2022-08-19T12:01:33.432Z,8.32
2022-08-19T12:04:02.631Z,9.32
2022-08-19T12:06:35.779Z,8.95
2022-08-19T12:09:09.337Z,9.23
2022-08-19T12:11:39.304Z,9.60
2022-08-19T12:14:15.139Z,8.75
2022-08-19T12:16:51.390Z,8.80
2022-08-19T12:19:22.258Z,9.18
2022-08-19T12:21:54.012Z,9.15
2022-08-19T12:24:24.484Z,8.90
2022-08-19T12:26:54.453Z,8.40
2022-08-19T12:29:29.444Z,8.35
2022-08-19T12:32:02.247Z,9.40
2022-08-19T12:34:34.630Z,8.20
2022-08-19T12:37:07.335Z,8.52
2022-08-19T12:39:43.065Z,8.63
2022-08-19T12:42:13.364Z,8.70
2022-08-19T12:44:45.942Z,8.70
2022-08-19T12:47:15.715Z,8.23
2022-08-19T12:49:54.062Z,8.05
2022-08-19T12:52:26.838Z,8.57
2022-08-19T12:54:58.247Z,8.32
2022-08-19T12:57:32.782Z,8.85
2022-08-19T13:00:11.715Z,9.18
2022-08-19T13:02:41.681Z,8.70
2022-08-19T13:05:16.831Z,8.38
2022-08-19T13:07:45.813Z,8.73
2022-08-19T13:10:18.599Z,8.00
2022-08-19T13:12:49.985Z,8.45
2022-08-19T13:15:24.469Z,8.15
2022-08-19T13:17:56.766Z,9.00
2022-08-19T13:20:27.025Z,8.23
2022-08-19T13:22:58.229Z,7.90
2022-08-19T13:25:27.649Z,7.45
2022-08-19T13:27:56.956Z,8.57
2022-08-19T13:30:44.762Z,8.45
2022-08-19T13:33:16.093Z,8.07
2022-08-19T13:35:50.133Z,8.30
2022-08-19T13:38:22.091Z,8.60
2022-08-19T13:40:53.778Z,8.32
2022-08-19T13:43:27.969Z,8.48
2022-08-19T13:45:57.996Z,7.55
2022-08-19T13:48:28.393Z,8.55
2022-08-19T13:50:57.065Z,7.90
2022-08-19T13:53:25.800Z,7.85
2022-08-19T13:55:54.981Z,8.02
2022-08-19T13:58:24.603Z,7.38
2022-08-19T14:00:53.427Z,7.20
2022-08-19T14:03:24.602Z,7.65
2022-08-19T14:05:53.300Z,6.97
2022-08-19T14:08:22.182Z,7.80
2022-08-19T14:10:51.478Z,6.88
2022-08-19T14:13:23.499Z,7.40
2022-08-19T14:15:54.135Z,7.25
2022-08-19T14:18:26.104Z,8.13
2022-08-19T14:20:57.806Z,7.70
2022-08-19T14:23:27.618Z,6.82
2022-08-19T14:26:05.531Z,6.93
2022-08-19T14:28:34.326Z,7.18
2022-08-19T14:31:02.962Z,7.10
2022-08-19T14:33:33.101Z,7.15
2022-08-19T14:36:02.552Z,7.65
2022-08-19T14:38:32.499Z,7.63
2022-08-19T14:41:14.836Z,7.22
2022-08-19T14:43:43.637Z,7.75
2022-08-19T14:46:13.652Z,7.85
2022-08-19T14:48:47.062Z,7.07
2022-08-19T14:51:21.369Z,7.18
2022-08-19T14:53:50.736Z,7.45
2022-08-19T14:56:25.818Z,6.63
2022-08-19T14:58:55.460Z,7.15
2022-08-19T15:01:24.942Z,7.30
2022-08-19T15:03:55.688Z,7.65
2022-08-19T15:06:25.872Z,6.95
2022-08-19T15:08:55.443Z,6.45
2022-08-19T15:11:28.768Z,6.53
2022-08-19T15:13:58.533Z,6.80
2022-08-19T15:16:28.765Z,6.65
2022-08-19T15:19:01.413Z,6.80
2022-08-19T15:21:31.776Z,6.70
2022-08-19T15:24:02.615Z,6.85
2022-08-19T15:26:33.385Z,6.95
2022-08-19T15:29:03.066Z,6.60
2022-08-19T15:31:35.133Z,5.97
2022-08-19T15:34:06.887Z,5.88
2022-08-19T15:36:36.262Z,5.85
2022-08-19T15:39:07.367Z,5.95
2022-08-19T15:41:37.023Z,5.72
2022-08-19T15:44:10.985Z,6.47
2022-08-19T15:46:43.841Z,5.55
2022-08-19T15:49:16.510Z,5.63
2022-08-19T15:51:49.392Z,5.88
2022-08-19T15:54:21.614Z,5.65
2022-08-19T15:57:09.648Z,5.93
2022-08-19T16:00:00.774Z,5.80
2022-08-19T16:02:53.610Z,6.15
2022-08-19T16:05:45.899Z,5.80
2022-08-19T16:08:15.514Z,6.18
2022-08-19T16:10:44.251Z,5.90
2022-08-19T16:13:12.803Z,5.50
2022-08-19T16:15:42.018Z,6.30
2022-08-19T16:18:10.627Z,5.55
2022-08-19T16:20:40.524Z,5.47
2022-08-19T16:23:09.380Z,5.80
2022-08-19T16:25:39.408Z,6.13
2022-08-19T16:28:09.903Z,5.90
2022-08-19T16:30:41.796Z,5.90
2022-08-19T16:33:11.757Z,6.00
2022-08-19T16:35:42.109Z,6.50
2022-08-19T16:38:11.564Z,6.13
2022-08-19T16:40:43.757Z,6.03
2022-08-19T16:43:15.152Z,6.68
2022-08-19T16:45:44.097Z,6.60
2022-08-19T16:48:12.780Z,5.80
2022-08-19T16:50:49.608Z,5.90
2022-08-19T16:53:21.308Z,5.97
2022-08-19T16:55:57.578Z,6.38
2022-08-19T16:58:29.185Z,6.40
2022-08-19T17:01:03.893Z,6.40
2022-08-19T17:03:36.408Z,5.95
2022-08-19T17:06:18.412Z,6.13
2022-08-19T17:08:51.089Z,5.78
2022-08-19T17:11:22.568Z,5.85
2022-08-19T17:13:51.804Z,5.20
2022-08-19T17:16:25.551Z,5.40
2022-08-19T17:18:55.749Z,5.63
2022-08-19T17:21:29.409Z,6.10
2022-08-19T17:23:59.039Z,5.63
2022-08-19T17:26:30.305Z,6.05
2022-08-19T17:29:00.603Z,5.43
2022-08-19T17:31:32.789Z,5.78
2022-08-19T17:34:01.607Z,6.10
2022-08-19T17:36:35.225Z,6.20
2022-08-19T17:39:05.625Z,5.65
2022-08-19T17:41:35.275Z,5.78
2022-08-19T17:44:05.157Z,5.93
2022-08-19T17:46:34.003Z,5.97
2022-08-19T17:49:02.882Z,6.07
2022-08-19T17:51:46.155Z,5.90
2022-08-19T17:54:19.268Z,6.15
2022-08-19T17:56:48.801Z,6.15
2022-08-19T17:59:17.649Z,5.47
2022-08-19T18:01:53.065Z,6.03
2022-08-19T18:04:25.728Z,6.07
2022-08-19T18:06:56.165Z,5.72
2022-08-19T18:09:27.036Z,6.03
2022-08-19T18:11:58.007Z,5.82
2022-08-19T18:14:34.091Z,6.40
2022-08-19T18:17:09.651Z,5.80
2022-08-19T18:19:43.311Z,6.07
2022-08-19T18:22:25.326Z,5.65
2022-08-19T18:24:54.747Z,5.82
2022-08-19T18:27:23.812Z,6.13
2022-08-19T18:29:52.482Z,6.03
2022-08-19T18:32:24.070Z,6.43
2022-08-19T18:34:54.065Z,5.93
2022-08-19T18:37:26.367Z,6.35
2022-08-19T18:40:12.362Z,6.65
2022-08-19T18:43:02.051Z,7.30
2022-08-19T18:45:48.883Z,6.35
2022-08-19T18:48:35.487Z,6.47
2022-08-19T18:51:04.918Z,6.80
2022-08-19T18:53:38.931Z,6.35
2022-08-19T18:56:10.081Z,6.72
2022-08-19T18:58:40.172Z,6.30
2022-08-19T19:01:14.872Z,6.70
2022-08-19T19:03:49.116Z,6.13
2022-08-19T19:06:22.523Z,6.55
2022-08-19T19:08:54.971Z,6.43
2022-08-19T19:11:27.876Z,5.88
2022-08-19T19:13:57.765Z,6.32
2022-08-19T19:16:26.445Z,6.40
2022-08-19T19:18:55.653Z,6.25
2022-08-19T19:21:30.792Z,6.65
2022-08-19T19:24:03.049Z,6.53
2022-08-19T19:26:31.931Z,6.70
2022-08-19T19:29:00.549Z,6.68
2022-08-19T19:31:29.229Z,7.20
2022-08-19T19:33:58.213Z,6.35
2022-08-19T19:36:27.420Z,7.00
2022-08-19T19:38:55.979Z,7.40
2022-08-19T19:41:26.323Z,6.95
2022-08-19T19:44:29.459Z,6.93
2022-08-19T19:46:48.214Z,7.45
2022-08-19T19:49:16.865Z,7.25
2022-08-19T19:51:45.405Z,6.68
2022-08-19T19:54:14.831Z,6.78
2022-08-19T19:56:45.442Z,6.78
2022-08-19T19:59:14.661Z,6.93
2022-08-19T20:01:46.124Z,6.70
2022-08-19T20:04:17.772Z,7.25
2022-08-19T20:06:47.933Z,6.72
2022-08-19T20:09:19.931Z,6.45
2022-08-19T20:11:54.361Z,6.47
2022-08-19T20:14:28.681Z,6.70
2022-08-19T20:17:00.049Z,7.15
2022-08-19T20:19:34.237Z,7.43
2022-08-19T20:22:04.247Z,7.35
2022-08-19T20:24:36.538Z,6.22
2022-08-19T20:27:07.184Z,6.85
2022-08-19T20:29:39.148Z,7.05
2022-08-19T20:32:10.102Z,7.22
2022-08-19T20:34:40.250Z,6.70
2022-08-19T20:37:09.871Z,6.63
2022-08-19T20:39:39.172Z,6.88
2022-08-19T20:42:09.277Z,6.63
2022-08-19T20:44:38.128Z,6.72
2022-08-19T20:47:07.465Z,6.63
2022-08-19T20:49:36.272Z,6.22
2022-08-19T20:52:06.569Z,6.53
2022-08-19T20:54:35.700Z,6.65
2022-08-19T20:57:05.495Z,6.97
2022-08-19T20:59:37.209Z,6.53
2022-08-19T21:02:06.304Z,6.45
2022-08-19T21:04:34.922Z,6.88
2022-08-19T21:07:03.507Z,6.78
2022-08-19T21:09:32.240Z,6.28
2022-08-19T21:12:01.065Z,6.25
2022-08-19T21:14:29.738Z,6.32
2022-08-19T21:16:59.877Z,5.82
2022-08-19T21:19:28.532Z,5.97
2022-08-19T21:21:57.132Z,6.38
2022-08-19T21:24:30.185Z,5.97
2022-08-19T21:27:00.906Z,6.32
2022-08-19T21:29:32.089Z,6.22
2022-08-19T21:32:02.015Z,6.65
2022-08-19T21:34:30.936Z,5.97
2022-08-19T21:36:59.522Z,6.40
2022-08-19T21:39:28.811Z,5.68
2022-08-19T21:41:57.631Z,6.13
2022-08-19T21:44:26.243Z,5.53
2022-08-19T21:46:54.789Z,6.05
2022-08-19T21:49:24.997Z,6.07
2022-08-19T21:51:53.573Z,6.25
2022-08-19T21:54:22.128Z,5.60
2022-08-19T21:56:50.880Z,6.05
2022-08-19T21:59:21.946Z,6.38
2022-08-19T22:02:05.615Z,6.13
2022-08-19T22:04:42.403Z,6.13
2022-08-19T22:07:14.180Z,5.95
2022-08-19T22:09:45.213Z,6.30
2022-08-19T22:12:25.550Z,6.03
2022-08-19T22:14:55.634Z,5.70
2022-08-19T22:17:27.459Z,5.90
2022-08-19T22:19:58.585Z,6.03
2022-08-19T22:22:31.896Z,6.07
2022-08-19T22:25:06.734Z,6.22
2022-08-19T22:27:36.492Z,6.07
2022-08-19T22:30:10.037Z,5.93
2022-08-19T22:32:39.711Z,5.55
2022-08-19T22:35:10.343Z,5.97
2022-08-19T22:37:38.919Z,6.20
2022-08-19T22:40:09.509Z,5.88
2022-08-19T22:42:38.889Z,6.00
2022-08-19T22:45:11.046Z,6.05
2022-08-19T22:47:40.952Z,6.13
2022-08-19T22:50:13.910Z,5.35
2022-08-19T22:52:51.936Z,5.15
2022-08-19T22:55:20.876Z,5.75
2022-08-19T22:57:49.658Z,6.70
2022-08-19T23:00:18.258Z,5.78
2022-08-19T23:02:51.405Z,5.30
2022-08-19T23:05:26.148Z,5.80
2022-08-19T23:07:58.245Z,6.00
2022-08-19T23:10:29.061Z,5.90
2022-08-19T23:13:00.600Z,6.25
2022-08-19T23:15:34.272Z,5.78
2022-08-19T23:18:05.570Z,5.80
2022-08-19T23:20:39.287Z,6.05
2022-08-19T23:23:12.091Z,6.13
2022-08-19T23:25:42.958Z,6.75
2022-08-19T23:28:28.956Z,6.20
2022-08-19T23:30:57.744Z,5.80
2022-08-19T23:33:39.761Z,5.90
2022-08-19T23:36:23.386Z,5.88
2022-08-19T23:38:53.050Z,5.10
2022-08-19T23:41:24.214Z,6.50
2022-08-19T23:43:55.052Z,6.20
2022-08-19T23:46:28.264Z,5.82
2022-08-19T23:48:57.416Z,5.60
2022-08-19T23:51:27.511Z,6.10
2022-08-19T23:53:56.135Z,5.90
2022-08-19T23:56:24.736Z,5.45
2022-08-19T23:58:53.524Z,5.97
